createdAt,value
2018-08-17T00:00:52.685Z,99.90
2018-08-17T00:03:20.869Z,99.90
2018-08-17T00:05:49.067Z,99.90
2018-08-17T00:08:17.254Z,99.90
2018-08-17T00:10:45.545Z,99.90
2018-08-17T00:13:13.714Z,99.90
2018-08-17T00:15:42.145Z,99.90
2018-08-17T00:18:10.604Z,99.90
2018-08-17T00:20:38.781Z,99.90
2018-08-17T00:23:06.970Z,99.90
2018-08-17T00:25:35.193Z,99.90
2018-08-17T00:28:03.346Z,99.90
2018-08-17T00:30:31.946Z,99.90
2018-08-17T00:33:00.482Z,99.90
2018-08-17T00:35:28.654Z,99.90
2018-08-17T00:37:56.859Z,99.90
2018-08-17T00:40:25.099Z,99.90
2018-08-17T00:42:53.253Z,99.90
2018-08-17T00:45:21.523Z,99.90
2018-08-17T00:47:49.717Z,99.90
2018-08-17T00:50:17.857Z,99.90
2018-08-17T00:52:46.002Z,99.90
2018-08-17T00:55:14.214Z,99.90
2018-08-17T00:57:42.441Z,99.90
2018-08-17T01:00:10.625Z,99.90
2018-08-17T01:02:38.794Z,99.90
2018-08-17T01:05:07.753Z,99.90
2018-08-17T01:07:35.942Z,99.90
2018-08-17T01:10:04.374Z,99.90
2018-08-17T01:12:32.588Z,99.90
2018-08-17T01:15:00.921Z,99.90
2018-08-17T01:17:35.680Z,99.90
2018-08-17T01:20:04.732Z,99.90
2018-08-17T01:22:32.996Z,99.90
2018-08-17T01:25:01.732Z,99.90
2018-08-17T01:27:30.397Z,99.90
2018-08-17T01:29:58.585Z,99.90
2018-08-17T01:32:27.105Z,99.90
2018-08-17T01:34:55.317Z,99.90
2018-08-17T01:37:23.529Z,99.90
2018-08-17T01:39:51.762Z,99.90
2018-08-17T01:42:20.172Z,99.90
2018-08-17T01:44:48.364Z,99.90
2018-08-17T01:47:16.558Z,99.90
2018-08-17T01:49:45.141Z,99.90
2018-08-17T01:52:13.333Z,99.90
2018-08-17T01:54:41.537Z,99.90
2018-08-17T01:57:09.689Z,99.90
2018-08-17T01:59:37.882Z,99.90
2018-08-17T02:02:06.004Z,99.90
2018-08-17T02:04:34.464Z,99.90
2018-08-17T02:07:02.802Z,99.90
2018-08-17T02:09:30.961Z,99.90
2018-08-17T02:11:59.137Z,99.90
2018-08-17T02:14:27.371Z,99.90
2018-08-17T02:16:55.525Z,99.90
2018-08-17T02:19:23.736Z,99.90
2018-08-17T02:21:52.065Z,99.90
2018-08-17T02:24:20.287Z,99.90
2018-08-17T02:26:48.411Z,99.90
2018-08-17T02:29:16.609Z,99.90
2018-08-17T02:31:44.774Z,99.90
2018-08-17T02:34:13.331Z,99.90
2018-08-17T02:36:41.521Z,99.90
2018-08-17T02:39:09.730Z,99.90
2018-08-17T02:41:37.898Z,99.90
2018-08-17T02:44:06.293Z,99.90
2018-08-17T02:46:34.462Z,99.90
2018-08-17T02:49:03.257Z,99.90
2018-08-17T02:51:31.431Z,99.90
2018-08-17T02:54:00.724Z,99.90
2018-08-17T02:56:28.886Z,99.90
2018-08-17T02:58:57.043Z,99.90
2018-08-17T03:01:25.194Z,99.90
2018-08-17T03:03:53.366Z,99.90
2018-08-17T03:06:21.531Z,99.90
2018-08-17T03:08:49.744Z,99.90
2018-08-17T03:11:19.542Z,99.90
2018-08-17T03:13:47.741Z,99.90
2018-08-17T03:16:15.934Z,99.90
2018-08-17T03:18:47.573Z,99.90
2018-08-17T03:21:16.094Z,99.90
2018-08-17T03:23:44.214Z,99.90
2018-08-17T03:26:12.498Z,99.90
2018-08-17T03:28:40.641Z,99.90
2018-08-17T03:31:09.122Z,99.90
2018-08-17T03:33:38.366Z,99.90
2018-08-17T03:36:06.634Z,99.90
2018-08-17T03:38:34.813Z,99.90
2018-08-17T03:41:03.046Z,99.90
2018-08-17T03:43:31.225Z,99.90
2018-08-17T03:45:59.437Z,99.90
2018-08-17T03:48:27.627Z,99.90
2018-08-17T03:50:55.866Z,99.90
2018-08-17T03:53:24.022Z,99.90
2018-08-17T03:55:52.261Z,99.90
2018-08-17T03:58:20.578Z,99.90
2018-08-17T04:00:48.744Z,99.90
2018-08-17T04:03:16.978Z,99.90
2018-08-17T04:05:45.194Z,99.90
2018-08-17T04:08:13.358Z,99.90
2018-08-17T04:10:41.575Z,99.90
2018-08-17T04:13:09.879Z,99.90
2018-08-17T04:15:38.111Z,99.90
2018-08-17T04:18:07.327Z,99.90
2018-08-17T04:20:35.913Z,99.90
2018-08-17T04:23:04.166Z,99.90
2018-08-17T04:25:32.673Z,99.90
2018-08-17T04:28:02.471Z,99.90
2018-08-17T04:30:30.673Z,99.90
2018-08-17T04:32:59.025Z,99.90
2018-08-17T04:35:27.263Z,99.90
2018-08-17T04:37:55.381Z,99.90
2018-08-17T04:40:23.613Z,99.90
2018-08-17T04:42:51.819Z,99.90
2018-08-17T04:45:19.968Z,99.90
2018-08-17T04:47:48.505Z,99.90
2018-08-17T04:50:16.689Z,99.90
2018-08-17T04:52:44.853Z,99.90
2018-08-17T04:55:13.082Z,99.90
2018-08-17T04:57:41.390Z,99.90
2018-08-17T05:00:10.406Z,99.90
2018-08-17T05:02:39.013Z,99.90
2018-08-17T05:05:08.105Z,99.90
2018-08-17T05:07:36.421Z,99.90
2018-08-17T05:10:05.217Z,99.90
2018-08-17T05:12:33.398Z,99.90
2018-08-17T05:15:01.580Z,99.90
2018-08-17T05:17:29.782Z,99.90
2018-08-17T05:19:57.987Z,99.90
2018-08-17T05:22:26.135Z,99.90
2018-08-17T05:24:54.333Z,99.90
2018-08-17T05:27:22.528Z,99.90
2018-08-17T05:29:51.038Z,99.90
2018-08-17T05:32:19.181Z,99.90
2018-08-17T05:34:47.393Z,99.90
2018-08-17T05:37:15.550Z,99.90
2018-08-17T05:39:43.722Z,99.90
2018-08-17T05:42:11.877Z,99.90
2018-08-17T05:44:40.038Z,99.90
2018-08-17T05:47:08.564Z,99.90
2018-08-17T05:49:36.736Z,99.90
2018-08-17T05:52:06.182Z,99.90
2018-08-17T05:54:34.498Z,99.90
2018-08-17T05:57:02.661Z,99.90
2018-08-17T05:59:30.866Z,99.90
2018-08-17T06:01:59.089Z,99.90
2018-08-17T06:04:27.262Z,99.90
2018-08-17T06:06:55.395Z,99.90
2018-08-17T06:09:23.581Z,99.90
2018-08-17T06:11:53.370Z,99.90
2018-08-17T06:14:21.557Z,99.90
2018-08-17T06:16:49.730Z,99.90
2018-08-17T06:19:17.947Z,99.90
2018-08-17T06:21:46.053Z,99.90
2018-08-17T06:24:14.555Z,99.90
2018-08-17T06:26:43.051Z,99.90
2018-08-17T06:29:11.223Z,99.90
2018-08-17T06:31:39.417Z,99.90
2018-08-17T06:34:07.593Z,99.90
2018-08-17T06:36:36.538Z,99.90
2018-08-17T06:39:07.901Z,99.90
2018-08-17T06:41:36.092Z,99.90
2018-08-17T06:44:04.314Z,99.90
2018-08-17T06:46:33.206Z,99.90
2018-08-17T06:49:01.378Z,99.90
2018-08-17T06:51:29.677Z,99.90
2018-08-17T06:53:57.930Z,99.90
2018-08-17T06:56:26.095Z,99.90
2018-08-17T06:58:54.330Z,99.90
2018-08-17T07:01:22.554Z,99.90
2018-08-17T07:03:50.713Z,99.90
2018-08-17T07:06:18.889Z,99.90
2018-08-17T07:08:47.137Z,99.90
2018-08-17T07:11:15.242Z,99.90
2018-08-17T07:13:43.400Z,99.90
2018-08-17T07:16:11.561Z,99.90
2018-08-17T07:18:39.769Z,99.90
2018-08-17T07:21:08.182Z,99.90
2018-08-17T07:23:36.322Z,99.90
2018-08-17T07:26:04.525Z,99.90
2018-08-17T07:28:33.002Z,99.90
2018-08-17T07:31:01.200Z,99.90
2018-08-17T07:33:29.372Z,99.90
2018-08-17T07:35:57.557Z,99.90
2018-08-17T07:38:25.957Z,99.90
2018-08-17T07:40:55.060Z,99.90
2018-08-17T07:43:23.212Z,99.90
2018-08-17T07:45:51.428Z,99.90
2018-08-17T07:48:19.742Z,99.90
2018-08-17T07:50:47.948Z,99.90
2018-08-17T07:53:18.858Z,99.90
2018-08-17T07:55:47.041Z,99.90
2018-08-17T07:58:15.238Z,99.90
2018-08-17T08:00:43.427Z,99.90
2018-08-17T08:03:11.561Z,99.90
2018-08-17T08:05:39.803Z,99.90
2018-08-17T08:08:08.031Z,99.90
2018-08-17T08:10:36.240Z,99.90
2018-08-17T08:13:05.063Z,99.90
2018-08-17T08:15:33.245Z,99.90
2018-08-17T08:18:01.402Z,99.90
2018-08-17T08:20:32.754Z,99.90
2018-08-17T08:23:12.617Z,99.90
2018-08-17T08:25:41.026Z,99.90
2018-08-17T08:28:09.997Z,99.90
2018-08-17T08:30:38.185Z,99.90
2018-08-17T08:33:06.770Z,99.90
2018-08-17T08:35:34.934Z,99.90
2018-08-17T08:38:03.130Z,99.90
2018-08-17T08:40:31.266Z,99.90
2018-08-17T08:42:59.459Z,99.90
2018-08-17T08:45:27.736Z,99.90
2018-08-17T08:47:55.841Z,99.90
2018-08-17T08:50:24.497Z,99.90
2018-08-17T08:52:52.670Z,99.90
2018-08-17T08:55:20.884Z,99.90
2018-08-17T08:57:49.037Z,99.90
2018-08-17T09:00:17.234Z,99.90
2018-08-17T09:02:46.338Z,99.90
2018-08-17T09:05:14.538Z,99.90
2018-08-17T09:07:43.237Z,99.90
2018-08-17T09:10:11.597Z,99.90
2018-08-17T09:12:40.705Z,99.90
2018-08-17T09:15:10.354Z,99.90
2018-08-17T09:17:38.691Z,99.90
2018-08-17T09:20:08.416Z,99.90
2018-08-17T09:22:37.359Z,99.90
2018-08-17T09:25:05.514Z,99.90
2018-08-17T09:27:34.304Z,99.90
2018-08-17T09:30:02.714Z,99.90
2018-08-17T09:32:30.886Z,99.90
2018-08-17T09:34:59.081Z,99.90
2018-08-17T09:37:27.250Z,99.90
2018-08-17T09:39:55.419Z,99.90
2018-08-17T09:42:23.902Z,99.60
2018-08-17T09:44:52.052Z,99.90
2018-08-17T09:47:20.214Z,99.60
2018-08-17T09:49:49.208Z,99.30
2018-08-17T09:52:18.126Z,98.70
2018-08-17T09:54:46.326Z,98.90
2018-08-17T09:57:14.483Z,99.00
2018-08-17T09:59:44.066Z,98.70
2018-08-17T10:02:17.797Z,98.40
2018-08-17T10:04:51.459Z,98.40
2018-08-17T10:07:24.990Z,98.30
2018-08-17T10:09:55.390Z,98.40
2018-08-17T10:12:23.738Z,98.00
2018-08-17T10:14:53.022Z,98.10
2018-08-17T10:17:21.227Z,97.00
2018-08-17T10:19:49.486Z,96.70
2018-08-17T10:22:17.662Z,96.00
2018-08-17T10:24:45.930Z,94.90
2018-08-17T10:27:14.136Z,94.50
2018-08-17T10:29:42.335Z,94.50
2018-08-17T10:32:10.591Z,93.60
2018-08-17T10:34:38.842Z,92.90
2018-08-17T10:37:07.334Z,92.90
2018-08-17T10:39:35.598Z,92.70
2018-08-17T10:42:03.771Z,93.30
2018-08-17T10:44:31.987Z,93.20
2018-08-17T10:47:00.377Z,93.20
2018-08-17T10:49:28.599Z,93.00
2018-08-17T10:52:00.373Z,93.20
2018-08-17T10:54:28.562Z,92.80
2018-08-17T10:56:56.906Z,91.70
2018-08-17T10:59:25.103Z,91.60
2018-08-17T11:01:53.278Z,91.80
2018-08-17T11:04:22.641Z,91.50
2018-08-17T11:06:50.801Z,91.40
2018-08-17T11:09:18.991Z,91.00
2018-08-17T11:11:47.185Z,90.90
2018-08-17T11:14:15.322Z,90.10
2018-08-17T11:16:43.539Z,89.80
2018-08-17T11:19:11.719Z,90.20
2018-08-17T11:21:39.897Z,88.40
2018-08-17T11:24:08.276Z,87.00
2018-08-17T11:26:37.562Z,86.90
2018-08-17T11:29:05.750Z,86.10
2018-08-17T11:31:33.938Z,86.00
2018-08-17T11:34:02.112Z,87.10
2018-08-17T11:36:30.506Z,87.30
2018-08-17T11:38:58.682Z,87.50
2018-08-17T11:41:26.866Z,87.90
2018-08-17T11:43:57.281Z,87.60
2018-08-17T11:46:25.469Z,87.80
2018-08-17T11:48:53.601Z,86.60
2018-08-17T11:51:21.786Z,86.70
2018-08-17T11:53:50.008Z,86.20
2018-08-17T11:56:18.150Z,86.40
2018-08-17T11:58:46.398Z,88.20
2018-08-17T12:01:20.195Z,86.30
2018-08-17T12:03:48.394Z,86.30
2018-08-17T12:06:16.651Z,86.10
2018-08-17T12:08:44.785Z,84.90
2018-08-17T12:11:12.974Z,85.10
2018-08-17T12:13:41.399Z,85.50
2018-08-17T12:16:12.110Z,85.70
2018-08-17T12:18:40.672Z,85.10
2018-08-17T12:21:08.822Z,83.60
2018-08-17T12:23:37.065Z,83.90
2018-08-17T12:26:05.319Z,85.90
2018-08-17T12:28:33.812Z,83.90
2018-08-17T12:31:01.958Z,87.20
2018-08-17T12:33:30.674Z,88.20
2018-08-17T12:35:58.842Z,87.00
2018-08-17T12:38:27.523Z,85.60
2018-08-17T12:40:57.032Z,85.50
2018-08-17T12:43:28.913Z,84.30
2018-08-17T12:45:57.202Z,83.40
2018-08-17T12:48:25.397Z,84.20
2018-08-17T12:50:53.926Z,84.60
2018-08-17T12:53:22.838Z,85.60
2018-08-17T12:55:51.018Z,84.50
2018-08-17T12:58:19.434Z,84.50
2018-08-17T13:00:47.620Z,83.30
2018-08-17T13:03:16.824Z,84.50
2018-08-17T13:05:45.030Z,82.50
2018-08-17T13:08:13.270Z,81.40
2018-08-17T13:10:41.596Z,80.50
2018-08-17T13:13:10.687Z,82.00
2018-08-17T13:15:43.200Z,81.10
2018-08-17T13:18:17.649Z,81.20
2018-08-17T13:20:45.849Z,81.20
2018-08-17T13:23:14.246Z,81.50
2018-08-17T13:25:42.476Z,81.30
2018-08-17T13:28:10.998Z,79.10
2018-08-17T13:30:39.201Z,78.40
2018-08-17T13:33:07.759Z,78.60
2018-08-17T13:35:36.027Z,78.20
2018-08-17T13:38:04.279Z,79.30
2018-08-17T13:40:32.481Z,79.30
2018-08-17T13:43:00.798Z,80.10
2018-08-17T13:45:28.966Z,78.30
2018-08-17T13:47:57.161Z,77.00
2018-08-17T13:50:25.386Z,75.80
2018-08-17T13:52:53.722Z,75.60
2018-08-17T13:55:21.948Z,75.80
2018-08-17T13:57:50.099Z,76.90
2018-08-17T14:00:18.301Z,75.70
2018-08-17T14:02:46.990Z,75.80
2018-08-17T14:05:15.153Z,75.10
2018-08-17T14:07:43.715Z,73.70
2018-08-17T14:10:12.160Z,73.80
2018-08-17T14:12:40.927Z,72.80
2018-08-17T14:15:10.566Z,72.50
2018-08-17T14:17:38.981Z,73.60
2018-08-17T14:20:10.997Z,71.90
2018-08-17T14:22:39.202Z,71.90
2018-08-17T14:25:08.606Z,70.30
2018-08-17T14:27:36.866Z,69.20
2018-08-17T14:30:08.521Z,68.50
2018-08-17T14:32:36.666Z,67.20
2018-08-17T14:35:05.067Z,67.90
2018-08-17T14:37:33.969Z,68.90
2018-08-17T14:40:02.304Z,70.40
2018-08-17T14:42:30.477Z,69.60
2018-08-17T14:44:58.665Z,69.80
2018-08-17T14:47:26.883Z,71.50
2018-08-17T14:49:55.057Z,75.20
2018-08-17T14:52:23.518Z,79.00
2018-08-17T14:54:51.657Z,81.80
2018-08-17T14:57:19.830Z,83.20
2018-08-17T14:59:47.970Z,83.80
2018-08-17T15:02:16.169Z,83.90
2018-08-17T15:04:44.346Z,84.70
2018-08-17T15:07:12.489Z,84.20
2018-08-17T15:09:40.662Z,83.30
2018-08-17T15:12:08.869Z,82.60
2018-08-17T15:14:37.034Z,83.00
2018-08-17T15:17:05.490Z,83.70
2018-08-17T15:19:33.714Z,83.60
2018-08-17T15:22:01.901Z,82.40
2018-08-17T15:24:30.119Z,83.00
2018-08-17T15:26:59.187Z,83.00
2018-08-17T15:29:27.354Z,83.30
2018-08-17T15:31:56.168Z,84.30
2018-08-17T15:34:24.368Z,84.80
2018-08-17T15:36:52.571Z,85.90
2018-08-17T15:39:20.779Z,87.50
2018-08-17T15:41:48.926Z,88.10
2018-08-17T15:44:22.658Z,88.90
2018-08-17T15:46:50.910Z,87.20
2018-08-17T15:49:24.606Z,85.60
2018-08-17T15:51:52.876Z,85.00
2018-08-17T15:54:21.029Z,84.50
2018-08-17T15:56:49.230Z,85.50
2018-08-17T15:59:17.466Z,86.00
2018-08-17T16:01:45.701Z,87.40
2018-08-17T16:04:13.905Z,87.10
2018-08-17T16:06:42.167Z,88.30
2018-08-17T16:09:11.617Z,88.10
2018-08-17T16:11:40.063Z,88.80
2018-08-17T16:14:08.250Z,90.00
2018-08-17T16:16:36.808Z,90.00
2018-08-17T16:19:05.490Z,90.20
2018-08-17T16:21:34.265Z,90.80
2018-08-17T16:24:03.717Z,90.70
2018-08-17T16:26:31.944Z,90.90
2018-08-17T16:29:01.264Z,91.30
2018-08-17T16:31:42.703Z,91.00
2018-08-17T16:34:11.085Z,90.70
2018-08-17T16:36:41.090Z,90.40
2018-08-17T16:39:11.138Z,90.70
2018-08-17T16:41:39.642Z,91.40
2018-08-17T16:44:07.781Z,91.60
2018-08-17T16:46:38.394Z,91.40
2018-08-17T16:49:06.974Z,91.70
2018-08-17T16:51:35.783Z,91.70
2018-08-17T16:54:03.961Z,92.10
2018-08-17T16:56:32.183Z,93.10
2018-08-17T16:59:00.668Z,93.00
2018-08-17T17:01:31.021Z,92.60
2018-08-17T17:03:59.265Z,92.80
2018-08-17T17:06:29.416Z,93.70
2018-08-17T17:09:12.502Z,94.10
2018-08-17T17:11:40.674Z,94.50
2018-08-17T17:14:09.295Z,94.50
2018-08-17T17:16:42.968Z,94.60
2018-08-17T17:19:16.582Z,94.90
2018-08-17T17:21:45.974Z,95.40
2018-08-17T17:24:14.862Z,95.80
2018-08-17T17:26:43.406Z,96.20
2018-08-17T17:29:11.613Z,96.50
2018-08-17T17:31:40.358Z,96.60
2018-08-17T17:34:08.905Z,96.90
2018-08-17T17:36:37.372Z,97.10
2018-08-17T17:39:08.529Z,97.50
2018-08-17T17:41:37.145Z,97.70
2018-08-17T17:44:05.361Z,97.80
2018-08-17T17:46:33.573Z,98.20
2018-08-17T17:49:01.790Z,98.20
2018-08-17T17:51:29.958Z,98.50
2018-08-17T17:53:58.161Z,99.00
2018-08-17T17:56:26.365Z,99.30
2018-08-17T17:59:00.825Z,99.40
2018-08-17T18:01:29.550Z,99.90
2018-08-17T18:03:57.746Z,99.90
2018-08-17T18:06:26.003Z,99.90
2018-08-17T18:08:54.182Z,99.90
2018-08-17T18:11:22.377Z,99.90
2018-08-17T18:13:50.565Z,99.90
2018-08-17T18:16:18.750Z,99.90
2018-08-17T18:18:46.890Z,99.90
2018-08-17T18:21:15.142Z,99.90
2018-08-17T18:23:43.337Z,99.90
2018-08-17T18:26:18.349Z,99.90
2018-08-17T18:28:46.557Z,99.90
2018-08-17T18:31:15.074Z,99.90
2018-08-17T18:33:43.227Z,99.90
2018-08-17T18:36:11.764Z,99.90
2018-08-17T18:38:39.951Z,99.90
2018-08-17T18:41:08.267Z,99.90
2018-08-17T18:43:36.452Z,99.90
2018-08-17T18:46:04.773Z,99.90
2018-08-17T18:48:33.004Z,99.90
2018-08-17T18:51:02.383Z,99.90
2018-08-17T18:53:30.574Z,99.90
2018-08-17T18:55:58.757Z,99.90
2018-08-17T18:58:27.301Z,99.90
2018-08-17T19:00:55.534Z,99.90
2018-08-17T19:03:23.690Z,99.90
2018-08-17T19:05:51.886Z,99.90
2018-08-17T19:08:20.106Z,99.90
2018-08-17T19:10:49.782Z,99.90
2018-08-17T19:13:18.018Z,99.90
2018-08-17T19:15:50.432Z,99.90
2018-08-17T19:18:18.677Z,99.90
2018-08-17T19:20:46.954Z,99.90
2018-08-17T19:23:15.123Z,99.90
2018-08-17T19:25:43.333Z,99.90
2018-08-17T19:28:11.513Z,99.90
2018-08-17T19:30:39.960Z,99.90
2018-08-17T19:33:11.446Z,99.90
2018-08-17T19:35:46.924Z,99.90
2018-08-17T19:38:15.170Z,99.90
2018-08-17T19:40:43.898Z,99.90
2018-08-17T19:43:12.117Z,99.90
2018-08-17T19:45:40.291Z,99.90
2018-08-17T19:48:08.461Z,99.90
2018-08-17T19:50:36.678Z,99.90
2018-08-17T19:53:04.917Z,99.90
2018-08-17T19:55:33.104Z,99.90
2018-08-17T19:58:01.453Z,99.90
2018-08-17T20:00:29.657Z,99.90
2018-08-17T20:02:57.925Z,99.90
2018-08-17T20:05:26.203Z,99.90
2018-08-17T20:07:54.779Z,99.90
2018-08-17T20:10:22.979Z,99.90
2018-08-17T20:12:51.244Z,99.90
2018-08-17T20:15:19.478Z,99.90
2018-08-17T20:17:50.248Z,99.90
2018-08-17T20:20:18.654Z,99.90
2018-08-17T20:22:46.900Z,99.90
2018-08-17T20:25:16.757Z,99.90
2018-08-17T20:27:46.118Z,99.90
2018-08-17T20:30:24.350Z,99.90
2018-08-17T20:32:52.581Z,99.90
2018-08-17T20:35:20.925Z,99.90
2018-08-17T20:37:51.413Z,99.90
2018-08-17T20:40:19.986Z,99.90
2018-08-17T20:42:48.294Z,99.90
2018-08-17T20:45:16.491Z,99.90
2018-08-17T20:47:44.821Z,99.90
2018-08-17T20:50:19.559Z,99.90
2018-08-17T20:52:53.386Z,99.90
2018-08-17T20:55:21.623Z,99.90
2018-08-17T20:57:51.476Z,99.90
2018-08-17T21:00:19.880Z,99.90
2018-08-17T21:02:48.212Z,99.90
2018-08-17T21:05:16.688Z,99.90
2018-08-17T21:07:45.485Z,99.90
2018-08-17T21:10:14.402Z,99.90
2018-08-17T21:12:42.613Z,99.90
2018-08-17T21:15:11.325Z,99.90
2018-08-17T21:17:39.584Z,99.90
2018-08-17T21:20:08.545Z,99.90
2018-08-17T21:22:36.826Z,99.90
2018-08-17T21:25:05.477Z,99.90
2018-08-17T21:27:34.112Z,99.90
2018-08-17T21:30:02.545Z,99.90
2018-08-17T21:32:30.829Z,99.90
2018-08-17T21:34:59.127Z,99.90
2018-08-17T21:37:27.765Z,99.90
2018-08-17T21:39:56.752Z,99.90
2018-08-17T21:42:25.032Z,99.90
2018-08-17T21:44:53.304Z,99.90
2018-08-17T21:47:21.582Z,99.90
2018-08-17T21:49:49.815Z,99.90
2018-08-17T21:52:24.684Z,99.90
2018-08-17T21:54:52.957Z,99.90
2018-08-17T21:57:21.240Z,99.90
2018-08-17T21:59:51.181Z,99.90
2018-08-17T22:02:20.437Z,99.90
2018-08-17T22:04:48.574Z,99.90
2018-08-17T22:07:21.805Z,99.90
2018-08-17T22:09:50.652Z,99.90
2018-08-17T22:12:19.006Z,99.90
2018-08-17T22:14:48.110Z,99.90
2018-08-17T22:17:29.742Z,99.90
2018-08-17T22:19:57.958Z,99.90
2018-08-17T22:22:26.194Z,99.90
2018-08-17T22:24:56.145Z,99.90
2018-08-17T22:27:25.170Z,99.90
2018-08-17T22:29:54.794Z,99.90
2018-08-17T22:32:23.970Z,99.90
2018-08-17T22:34:52.726Z,99.90
2018-08-17T22:37:20.933Z,99.90
2018-08-17T22:39:49.150Z,99.90
2018-08-17T22:42:18.269Z,99.90
2018-08-17T22:44:46.606Z,99.90
2018-08-17T22:47:19.054Z,99.90
2018-08-17T22:49:48.773Z,99.90
2018-08-17T22:52:17.161Z,99.90
2018-08-17T22:54:49.638Z,99.90
2018-08-17T22:57:18.182Z,99.90
2018-08-17T22:59:46.386Z,99.90
2018-08-17T23:02:14.605Z,99.90
2018-08-17T23:04:42.770Z,99.90
2018-08-17T23:07:11.009Z,99.90
2018-08-17T23:09:39.186Z,99.90
2018-08-17T23:12:07.365Z,99.90
2018-08-17T23:14:35.569Z,99.90
2018-08-17T23:17:03.763Z,99.90
2018-08-17T23:19:32.309Z,99.90
2018-08-17T23:22:00.484Z,99.90
2018-08-17T23:24:28.664Z,99.90
2018-08-17T23:26:56.842Z,99.90
2018-08-17T23:29:25.038Z,99.90
2018-08-17T23:31:53.645Z,99.90
2018-08-17T23:34:22.149Z,99.90
2018-08-17T23:36:50.368Z,99.90
2018-08-17T23:39:19.233Z,99.90
2018-08-17T23:41:47.389Z,99.90
2018-08-17T23:44:15.617Z,99.90
2018-08-17T23:46:43.811Z,99.90
2018-08-17T23:49:11.941Z,99.90
2018-08-17T23:51:40.181Z,99.90
2018-08-17T23:54:08.354Z,99.90
2018-08-17T23:56:36.578Z,99.90
2018-08-17T23:59:04.750Z,99.90
